sensor_id;sensor_type;location;lat;lon;timestamp;pressure;altitude;pressure_sealevel;temperature;humidity
36222;BME280;22266;52.340;4.962;2023-07-16T00:01:53;100686.09;;;18.34;61.70
36222;BME280;22266;52.340;4.962;2023-07-16T00:04:19;100690.72;;;18.34;61.29
36222;BME280;22266;52.340;4.962;2023-07-16T00:06:46;100692.56;;;18.28;61.15
36222;BME280;22266;52.340;4.962;2023-07-16T00:09:13;100691.41;;;18.24;60.95
36222;BME280;22266;52.340;4.962;2023-07-16T00:11:39;100688.84;;;18.17;61.26
36222;BME280;22266;52.340;4.962;2023-07-16T00:14:06;100691.31;;;18.19;61.34
36222;BME280;22266;52.340;4.962;2023-07-16T00:16:32;100691.31;;;18.19;61.04
36222;BME280;22266;52.340;4.962;2023-07-16T00:18:59;100687.53;;;18.20;61.32
36222;BME280;22266;52.340;4.962;2023-07-16T00:21:26;100679.59;;;18.18;61.20
36222;BME280;22266;52.340;4.962;2023-07-16T00:23:52;100679.25;;;18.15;60.75
36222;BME280;22266;52.340;4.962;2023-07-16T00:26:19;100666.97;;;18.12;60.77
36222;BME280;22266;52.340;4.962;2023-07-16T00:28:45;100684.97;;;18.13;60.96
36222;BME280;22266;52.340;4.962;2023-07-16T00:31:12;100674.88;;;18.14;60.74
36222;BME280;22266;52.340;4.962;2023-07-16T00:33:38;100684.13;;;18.13;60.75
36222;BME280;22266;52.340;4.962;2023-07-16T00:36:05;100678.69;;;18.13;60.76
36222;BME280;22266;52.340;4.962;2023-07-16T00:38:31;100681.09;;;18.09;60.80
36222;BME280;22266;52.340;4.962;2023-07-16T00:40:58;100679.66;;;18.07;60.27
36222;BME280;22266;52.340;4.962;2023-07-16T00:43:24;100678.50;;;18.02;60.46
36222;BME280;22266;52.340;4.962;2023-07-16T00:45:51;100681.97;;;17.98;60.53
36222;BME280;22266;52.340;4.962;2023-07-16T00:48:18;100677.34;;;17.98;60.33
36222;BME280;22266;52.340;4.962;2023-07-16T00:50:45;100676.19;;;17.94;60.42
36222;BME280;22266;52.340;4.962;2023-07-16T00:53:12;100670.53;;;17.96;60.29
36222;BME280;22266;52.340;4.962;2023-07-16T00:55:39;100679.78;;;17.95;60.41
36222;BME280;22266;52.340;4.962;2023-07-16T00:58:06;100684.16;;;17.96;60.38
36222;BME280;22266;52.340;4.962;2023-07-16T01:00:34;100685.31;;;18.00;60.71
36222;BME280;22266;52.340;4.962;2023-07-16T01:03:03;100689.09;;;17.99;60.45
36222;BME280;22266;52.340;4.962;2023-07-16T01:05:38;100692.88;;;17.98;60.28
36222;BME280;22266;52.340;4.962;2023-07-16T01:08:09;100690.41;;;17.96;60.13
36222;BME280;22266;52.340;4.962;2023-07-16T01:10:38;100690.22;;;17.86;60.42
36222;BME280;22266;52.340;4.962;2023-07-16T01:13:04;100682.91;;;17.87;60.30
36222;BME280;22266;52.340;4.962;2023-07-16T01:15:31;100688.56;;;17.85;60.36
36222;BME280;22266;52.340;4.962;2023-07-16T01:17:59;100697.56;;;17.86;60.72
36222;BME280;22266;52.340;4.962;2023-07-16T01:20:26;100698.66;;;17.85;60.36
36222;BME280;22266;52.340;4.962;2023-07-16T01:28:32;100694.69;;;17.92;60.75
36222;BME280;22266;52.340;4.962;2023-07-16T01:31:06;100691.38;;;17.90;60.50
36222;BME280;22266;52.340;4.962;2023-07-16T01:33:40;100699.88;;;17.94;60.52
36222;BME280;22266;52.340;4.962;2023-07-16T01:36:12;100694.69;;;17.92;60.63
36222;BME280;22266;52.340;4.962;2023-07-16T01:38:39;100693.53;;;17.88;61.01
36222;BME280;22266;52.340;4.962;2023-07-16T01:41:06;100697.91;;;17.89;61.31
36222;BME280;22266;52.340;4.962;2023-07-16T01:43:32;100686.44;;;17.87;60.92
36222;BME280;22266;52.340;4.962;2023-07-16T01:45:59;100691.06;;;17.87;61.07
36222;BME280;22266;52.340;4.962;2023-07-16T01:48:30;100701.44;;;17.90;60.99
36222;BME280;22266;52.340;4.962;2023-07-16T01:50:58;100702.03;;;17.92;61.27
36222;BME280;22266;52.340;4.962;2023-07-16T01:53:26;100700.97;;;17.93;61.10
36222;BME280;22266;52.340;4.962;2023-07-16T01:55:52;100697.34;;;17.87;60.78
36222;BME280;22266;52.340;4.962;2023-07-16T01:58:20;100701.13;;;17.86;60.97
36222;BME280;22266;52.340;4.962;2023-07-16T02:00:49;100692.38;;;17.84;61.08
36222;BME280;22266;52.340;4.962;2023-07-16T02:03:16;100692.94;;;17.86;61.31
36222;BME280;22266;52.340;4.962;2023-07-16T02:05:45;100686.69;;;17.86;61.42
36222;BME280;22266;52.340;4.962;2023-07-16T02:08:11;100682.91;;;17.87;61.66
36222;BME280;22266;52.340;4.962;2023-07-16T02:10:38;100684.47;;;17.83;61.53
36222;BME280;22266;52.340;4.962;2023-07-16T02:13:04;100689.06;;;17.82;61.58
36222;BME280;22266;52.340;4.962;2023-07-16T02:15:31;100695.84;;;17.79;61.52
36222;BME280;22266;52.340;4.962;2023-07-16T02:17:57;100687.91;;;17.78;61.52
36222;BME280;22266;52.340;4.962;2023-07-16T02:20:24;100687.59;;;17.74;61.79
36222;BME280;22266;52.340;4.962;2023-07-16T02:22:51;100699.91;;;17.65;61.68
36222;BME280;22266;52.340;4.962;2023-07-16T02:25:17;100692.47;;;17.61;62.46
36222;BME280;22266;52.340;4.962;2023-07-16T02:27:46;100693.56;;;17.60;62.14
36222;BME280;22266;52.340;4.962;2023-07-16T02:30:14;100693.28;;;17.61;62.08
36222;BME280;22266;52.340;4.962;2023-07-16T02:32:42;100686.22;;;17.60;62.03
36222;BME280;22266;52.340;4.962;2023-07-16T02:35:09;100688.94;;;17.60;61.92
36222;BME280;22266;52.340;4.962;2023-07-16T02:37:36;100678.88;;;17.61;61.99
36222;BME280;22266;52.340;4.962;2023-07-16T02:40:03;100681.03;;;17.59;61.99
36222;BME280;22266;52.340;4.962;2023-07-16T02:42:30;100679.84;;;17.54;61.93
36222;BME280;22266;52.340;4.962;2023-07-16T02:44:56;100684.97;;;17.51;61.80
36222;BME280;22266;52.340;4.962;2023-07-16T02:47:23;100690.28;;;17.46;61.90
36222;BME280;22266;52.340;4.962;2023-07-16T02:49:52;100685.53;;;17.53;62.21
36222;BME280;22266;52.340;4.962;2023-07-16T02:52:19;100690.16;;;17.52;61.89
36222;BME280;22266;52.340;4.962;2023-07-16T02:54:46;100685.53;;;17.53;61.61
36222;BME280;22266;52.340;4.962;2023-07-16T02:57:12;100683.88;;;17.52;61.79
36222;BME280;22266;52.340;4.962;2023-07-16T02:59:38;100691.06;;;17.58;61.98
36222;BME280;22266;52.340;4.962;2023-07-16T03:02:05;100692.38;;;17.55;62.22
36222;BME280;22266;52.340;4.962;2023-07-16T03:04:32;100695.59;;;17.52;62.13
36222;BME280;22266;52.340;4.962;2023-07-16T03:06:58;100697.50;;;17.52;62.47
36222;BME280;22266;52.340;4.962;2023-07-16T03:09:25;100697.00;;;17.55;62.46
36222;BME280;22266;52.340;4.962;2023-07-16T03:11:51;100703.06;;;17.45;62.62
36222;BME280;22266;52.340;4.962;2023-07-16T03:14:18;100704.50;;;17.48;62.38
36222;BME280;22266;52.340;4.962;2023-07-16T03:16:44;100715.38;;;17.48;62.59
36222;BME280;22266;52.340;4.962;2023-07-16T03:19:11;100710.75;;;17.48;62.92
36222;BME280;22266;52.340;4.962;2023-07-16T03:21:37;100704.97;;;17.45;62.77
36222;BME280;22266;52.340;4.962;2023-07-16T03:24:04;100709.03;;;17.42;62.81
36222;BME280;22266;52.340;4.962;2023-07-16T03:26:31;100705.94;;;17.39;63.01
36222;BME280;22266;52.340;4.962;2023-07-16T03:28:57;100714.69;;;17.41;63.13
36222;BME280;22266;52.340;4.962;2023-07-16T03:31:24;100712.41;;;17.49;63.05
36222;BME280;22266;52.340;4.962;2023-07-16T03:33:51;100712.25;;;17.56;62.76
36222;BME280;22266;52.340;4.962;2023-07-16T03:36:18;100722.56;;;17.54;63.15
36222;BME280;22266;52.340;4.962;2023-07-16T03:38:45;100717.09;;;17.54;63.17
36222;BME280;22266;52.340;4.962;2023-07-16T03:41:11;100724.56;;;17.59;62.99
36222;BME280;22266;52.340;4.962;2023-07-16T03:43:38;100727.13;;;17.65;63.06
36222;BME280;22266;52.340;4.962;2023-07-16T03:46:17;100732.97;;;17.57;63.09
36222;BME280;22266;52.340;4.962;2023-07-16T03:48:44;100726.69;;;17.57;63.04
36222;BME280;22266;52.340;4.962;2023-07-16T03:51:11;100733.78;;;17.58;63.62
36222;BME280;22266;52.340;4.962;2023-07-16T03:53:37;100732.13;;;17.57;63.68
36222;BME280;22266;52.340;4.962;2023-07-16T03:56:04;100736.28;;;17.59;63.70
36222;BME280;22266;52.340;4.962;2023-07-16T03:58:31;100735.69;;;17.57;64.00
36222;BME280;22266;52.340;4.962;2023-07-16T04:01:00;100741.59;;;17.54;63.67
36222;BME280;22266;52.340;4.962;2023-07-16T04:03:27;100760.66;;;17.54;63.94
36222;BME280;22266;52.340;4.962;2023-07-16T04:06:05;100764.22;;;17.54;64.08
36222;BME280;22266;52.340;4.962;2023-07-16T04:08:31;100762.81;;;17.52;64.35
36222;BME280;22266;52.340;4.962;2023-07-16T04:10:58;100763.88;;;17.51;64.35
36222;BME280;22266;52.340;4.962;2023-07-16T04:13:25;100767.09;;;17.48;64.61
36222;BME280;22266;52.340;4.962;2023-07-16T04:15:51;100769.59;;;17.38;65.12
36222;BME280;22266;52.340;4.962;2023-07-16T04:18:20;100773.03;;;17.33;65.03
36222;BME280;22266;52.340;4.962;2023-07-16T04:20:47;100766.75;;;17.33;64.92
36222;BME280;22266;52.340;4.962;2023-07-16T04:23:14;100767.59;;;17.33;65.30
36222;BME280;22266;52.340;4.962;2023-07-16T04:25:40;100767.84;;;17.32;64.95
36222;BME280;22266;52.340;4.962;2023-07-16T04:28:07;100762.66;;;17.30;65.08
36222;BME280;22266;52.340;4.962;2023-07-16T04:30:33;100760.03;;;17.35;64.87
36222;BME280;22266;52.340;4.962;2023-07-16T04:33:00;100763.81;;;17.34;65.09
36222;BME280;22266;52.340;4.962;2023-07-16T04:35:26;100771.84;;;17.29;65.24
36222;BME280;22266;52.340;4.962;2023-07-16T04:37:53;100772.22;;;17.33;65.39
36222;BME280;22266;52.340;4.962;2023-07-16T04:40:19;100775.41;;;17.29;65.18
36222;BME280;22266;52.340;4.962;2023-07-16T04:42:46;100771.84;;;17.29;65.59
36222;BME280;22266;52.340;4.962;2023-07-16T04:45:12;100777.19;;;17.36;65.35
36222;BME280;22266;52.340;4.962;2023-07-16T04:47:39;100783.88;;;17.45;65.48
36222;BME280;22266;52.340;4.962;2023-07-16T04:50:06;100782.59;;;17.47;65.45
36222;BME280;22266;52.340;4.962;2023-07-16T04:52:32;100783.16;;;17.49;65.28
36222;BME280;22266;52.340;4.962;2023-07-16T04:54:59;100773.69;;;17.52;64.99
36222;BME280;22266;52.340;4.962;2023-07-16T04:57:25;100784.94;;;17.55;65.09
36222;BME280;22266;52.340;4.962;2023-07-16T04:59:52;100793.56;;;17.52;65.32
36222;BME280;22266;52.340;4.962;2023-07-16T05:02:21;100795.38;;;17.47;65.05
36222;BME280;22266;52.340;4.962;2023-07-16T05:04:47;100786.97;;;17.48;65.00
36222;BME280;22266;52.340;4.962;2023-07-16T05:07:14;100796.88;;;17.54;64.73
36222;BME280;22266;52.340;4.962;2023-07-16T05:09:42;100804.81;;;17.56;64.71
36222;BME280;22266;52.340;4.962;2023-07-16T05:12:09;100794.47;;;17.58;64.25
36222;BME280;22266;52.340;4.962;2023-07-16T05:14:47;100798.75;;;17.54;64.62
36222;BME280;22266;52.340;4.962;2023-07-16T05:17:14;100802.94;;;17.45;64.56
36222;BME280;22266;52.340;4.962;2023-07-16T05:19:41;100797.75;;;17.43;64.45
36222;BME280;22266;52.340;4.962;2023-07-16T05:22:08;100799.88;;;17.41;64.23
36222;BME280;22266;52.340;4.962;2023-07-16T05:24:35;100807.66;;;17.49;64.58
36222;BME280;22266;52.340;4.962;2023-07-16T05:27:01;100803.75;;;17.45;64.48
36222;BME280;22266;52.340;4.962;2023-07-16T05:29:28;100812.28;;;17.37;64.54
36222;BME280;22266;52.340;4.962;2023-07-16T05:31:54;100811.34;;;17.43;64.18
36222;BME280;22266;52.340;4.962;2023-07-16T05:34:21;100809.19;;;17.45;64.31
36222;BME280;22266;52.340;4.962;2023-07-16T05:36:47;100807.56;;;17.44;63.85
36222;BME280;22266;52.340;4.962;2023-07-16T05:39:14;100806.81;;;17.49;63.40
36222;BME280;22266;52.340;4.962;2023-07-16T05:41:40;100819.31;;;17.62;63.26
36222;BME280;22266;52.340;4.962;2023-07-16T05:44:07;100820.03;;;17.69;62.88
36222;BME280;22266;52.340;4.962;2023-07-16T05:46:35;100830.66;;;17.82;62.15
36222;BME280;22266;52.340;4.962;2023-07-16T05:49:01;100818.41;;;17.96;61.51
36222;BME280;22266;52.340;4.962;2023-07-16T05:51:28;100807.81;;;18.12;61.34
36222;BME280;22266;52.340;4.962;2023-07-16T05:53:54;100823.16;;;18.18;60.66
36222;BME280;22266;52.340;4.962;2023-07-16T05:56:21;100826.56;;;18.25;60.14
36222;BME280;22266;52.340;4.962;2023-07-16T05:58:47;100845.28;;;18.21;60.33
36222;BME280;22266;52.340;4.962;2023-07-16T06:01:14;100830.72;;;18.27;60.24
36222;BME280;22266;52.340;4.962;2023-07-16T06:03:40;100834.34;;;18.33;59.63
36222;BME280;22266;52.340;4.962;2023-07-16T06:06:10;100835.25;;;18.39;59.49
36222;BME280;22266;52.340;4.962;2023-07-16T06:08:36;100833.59;;;18.38;59.56
36222;BME280;22266;52.340;4.962;2023-07-16T06:11:03;100849.13;;;18.37;59.88
36222;BME280;22266;52.340;4.962;2023-07-16T06:13:30;100846.47;;;18.25;59.85
36222;BME280;22266;52.340;4.962;2023-07-16T06:15:56;100845.22;;;18.16;60.59
36222;BME280;22266;52.340;4.962;2023-07-16T06:18:23;100841.53;;;18.11;60.79
36222;BME280;22266;52.340;4.962;2023-07-16T06:20:49;100847.31;;;17.97;60.94
36222;BME280;22266;52.340;4.962;2023-07-16T06:23:18;100854.50;;;18.03;61.10
36222;BME280;22266;52.340;4.962;2023-07-16T06:25:44;100856.84;;;18.12;61.31
36222;BME280;22266;52.340;4.962;2023-07-16T06:28:13;100861.69;;;18.10;61.69
36222;BME280;22266;52.340;4.962;2023-07-16T06:30:40;100864.47;;;17.98;61.50
36222;BME280;22266;52.340;4.962;2023-07-16T06:33:06;100874.16;;;18.06;61.63
36222;BME280;22266;52.340;4.962;2023-07-16T06:35:33;100865.41;;;18.03;61.87
36222;BME280;22266;52.340;4.962;2023-07-16T06:37:59;100864.97;;;17.95;62.01
36222;BME280;22266;52.340;4.962;2023-07-16T06:40:26;100873.72;;;17.97;62.27
36222;BME280;22266;52.340;4.962;2023-07-16T06:42:52;100887.06;;;17.98;61.90
36222;BME280;22266;52.340;4.962;2023-07-16T06:45:19;100875.75;;;17.90;61.82
36222;BME280;22266;52.340;4.962;2023-07-16T06:47:45;100897.41;;;17.96;61.87
36222;BME280;22266;52.340;4.962;2023-07-16T06:50:12;100895.41;;;17.92;61.37
36222;BME280;22266;52.340;4.962;2023-07-16T06:52:38;100899.75;;;18.04;61.51
36222;BME280;22266;52.340;4.962;2023-07-16T06:55:05;100905.19;;;18.04;60.36
36222;BME280;22266;52.340;4.962;2023-07-16T06:57:31;100902.38;;;17.99;60.18
36222;BME280;22266;52.340;4.962;2023-07-16T06:59:58;100896.53;;;18.08;60.89
36222;BME280;22266;52.340;4.962;2023-07-16T07:02:24;100901.81;;;18.14;60.57
36222;BME280;22266;52.340;4.962;2023-07-16T07:04:51;100923.41;;;18.16;60.42
36222;BME280;22266;52.340;4.962;2023-07-16T07:07:17;100920.91;;;18.14;60.02
36222;BME280;22266;52.340;4.962;2023-07-16T07:09:47;100914.44;;;18.03;60.23
36222;BME280;22266;52.340;4.962;2023-07-16T07:12:15;100906.09;;;18.10;60.63
36222;BME280;22266;52.340;4.962;2023-07-16T07:14:41;100910.59;;;18.16;60.66
36222;BME280;22266;52.340;4.962;2023-07-16T07:17:07;100908.88;;;18.27;60.81
36222;BME280;22266;52.340;4.962;2023-07-16T07:19:34;100915.75;;;18.29;60.36
36222;BME280;22266;52.340;4.962;2023-07-16T07:22:00;100899.53;;;18.23;60.87
36222;BME280;22266;52.340;4.962;2023-07-16T07:24:27;100920.84;;;18.26;61.26
36222;BME280;22266;52.340;4.962;2023-07-16T07:26:53;100917.19;;;18.32;61.46
36222;BME280;22266;52.340;4.962;2023-07-16T07:29:20;100917.25;;;18.37;61.45
36222;BME280;22266;52.340;4.962;2023-07-16T07:31:46;100912.63;;;18.38;61.13
36222;BME280;22266;52.340;4.962;2023-07-16T07:34:13;100927.34;;;18.37;61.42
36222;BME280;22266;52.340;4.962;2023-07-16T07:36:39;100947.94;;;18.44;61.22
36222;BME280;22266;52.340;4.962;2023-07-16T07:39:06;100952.69;;;18.37;61.46
36222;BME280;22266;52.340;4.962;2023-07-16T07:41:33;100946.41;;;18.37;61.33
36222;BME280;22266;52.340;4.962;2023-07-16T07:44:00;100948.41;;;18.41;60.88
36222;BME280;22266;52.340;4.962;2023-07-16T07:46:26;100948.53;;;18.35;60.99
36222;BME280;22266;52.340;4.962;2023-07-16T07:48:53;100940.38;;;18.35;61.05
36222;BME280;22266;52.340;4.962;2023-07-16T07:51:20;100962.16;;;18.35;60.70
36222;BME280;22266;52.340;4.962;2023-07-16T07:53:46;100977.56;;;18.41;60.86
36222;BME280;22266;52.340;4.962;2023-07-16T07:56:13;100952.00;;;18.30;60.90
36222;BME280;22266;52.340;4.962;2023-07-16T07:58:40;100955.06;;;18.34;61.09
36222;BME280;22266;52.340;4.962;2023-07-16T08:01:07;100961.13;;;18.36;61.09
36222;BME280;22266;52.340;4.962;2023-07-16T08:03:34;100962.38;;;18.45;61.25
36222;BME280;22266;52.340;4.962;2023-07-16T08:06:01;100969.25;;;18.47;60.74
36222;BME280;22266;52.340;4.962;2023-07-16T08:08:28;100964.03;;;18.46;60.65
36222;BME280;22266;52.340;4.962;2023-07-16T08:10:55;100964.84;;;18.46;60.99
36222;BME280;22266;52.340;4.962;2023-07-16T08:13:21;100976.56;;;18.47;60.77
36222;BME280;22266;52.340;4.962;2023-07-16T08:15:48;100968.22;;;18.37;60.63
36222;BME280;22266;52.340;4.962;2023-07-16T08:18:14;100971.50;;;18.39;60.72
36222;BME280;22266;52.340;4.962;2023-07-16T08:20:41;100960.44;;;18.28;60.50
36222;BME280;22266;52.340;4.962;2023-07-16T08:23:07;100975.09;;;18.39;61.13
36222;BME280;22266;52.340;4.962;2023-07-16T08:25:34;100971.47;;;18.50;61.09
36222;BME280;22266;52.340;4.962;2023-07-16T08:28:04;100971.91;;;18.59;60.76
36222;BME280;22266;52.340;4.962;2023-07-16T08:30:32;100970.34;;;18.63;60.65
36222;BME280;22266;52.340;4.962;2023-07-16T08:32:58;100970.94;;;18.65;60.64
36222;BME280;22266;52.340;4.962;2023-07-16T08:35:25;100982.56;;;18.72;60.84
36222;BME280;22266;52.340;4.962;2023-07-16T08:37:51;100978.59;;;18.80;61.24
36222;BME280;22266;52.340;4.962;2023-07-16T08:40:19;100999.00;;;18.77;60.55
36222;BME280;22266;52.340;4.962;2023-07-16T08:42:48;100986.38;;;18.60;60.45
36222;BME280;22266;52.340;4.962;2023-07-16T08:45:15;100979.94;;;18.66;60.58
36222;BME280;22266;52.340;4.962;2023-07-16T08:47:42;100988.94;;;18.66;60.68
36222;BME280;22266;52.340;4.962;2023-07-16T08:50:10;100999.16;;;18.71;60.59
36222;BME280;22266;52.340;4.962;2023-07-16T08:52:37;101000.44;;;18.68;60.93
36222;BME280;22266;52.340;4.962;2023-07-16T08:55:04;100999.50;;;18.63;60.94
36222;BME280;22266;52.340;4.962;2023-07-16T08:57:30;101011.97;;;18.70;61.44
36222;BME280;22266;52.340;4.962;2023-07-16T08:59:58;101012.91;;;18.76;61.39
36222;BME280;22266;52.340;4.962;2023-07-16T09:02:24;101005.72;;;18.87;61.26
36222;BME280;22266;52.340;4.962;2023-07-16T09:04:52;100998.13;;;18.89;61.44
36222;BME280;22266;52.340;4.962;2023-07-16T09:07:18;101000.34;;;18.92;60.77
36222;BME280;22266;52.340;4.962;2023-07-16T09:09:58;101021.00;;;18.88;60.25
36222;BME280;22266;52.340;4.962;2023-07-16T09:12:26;101033.00;;;18.87;59.52
36222;BME280;22266;52.340;4.962;2023-07-16T09:14:53;101021.25;;;18.86;59.78
36222;BME280;22266;52.340;4.962;2023-07-16T09:17:24;101012.66;;;18.77;59.58
36222;BME280;22266;52.340;4.962;2023-07-16T09:19:51;101031.00;;;18.82;59.46
36222;BME280;22266;52.340;4.962;2023-07-16T09:22:19;101024.25;;;18.85;59.57
36222;BME280;22266;52.340;4.962;2023-07-16T09:24:46;101016.72;;;18.92;59.61
36222;BME280;22266;52.340;4.962;2023-07-16T09:27:13;101026.66;;;18.98;59.88
36222;BME280;22266;52.340;4.962;2023-07-16T09:29:40;101025.91;;;19.02;59.80
36222;BME280;22266;52.340;4.962;2023-07-16T09:32:07;101032.88;;;19.10;59.69
36222;BME280;22266;52.340;4.962;2023-07-16T09:34:33;101038.31;;;19.10;59.67
36222;BME280;22266;52.340;4.962;2023-07-16T09:37:01;101048.97;;;19.12;59.79
36222;BME280;22266;52.340;4.962;2023-07-16T09:39:28;101028.16;;;19.22;59.65
36222;BME280;22266;52.340;4.962;2023-07-16T09:41:55;101031.56;;;19.30;59.53
36222;BME280;22266;52.340;4.962;2023-07-16T09:44:24;101048.91;;;19.23;59.65
36222;BME280;22266;52.340;4.962;2023-07-16T09:46:50;101050.25;;;19.21;59.63
36222;BME280;22266;52.340;4.962;2023-07-16T09:49:17;101054.78;;;19.15;59.36
36222;BME280;22266;52.340;4.962;2023-07-16T09:51:44;101051.09;;;19.21;59.85
36222;BME280;22266;52.340;4.962;2023-07-16T09:54:14;101056.53;;;19.21;59.78
36222;BME280;22266;52.340;4.962;2023-07-16T09:56:44;101064.78;;;19.10;59.62
36222;BME280;22266;52.340;4.962;2023-07-16T09:59:14;101066.50;;;18.99;59.49
36222;BME280;22266;52.340;4.962;2023-07-16T10:01:42;101075.84;;;19.03;59.26
36222;BME280;22266;52.340;4.962;2023-07-16T10:04:12;101082.13;;;19.03;59.34
36222;BME280;22266;52.340;4.962;2023-07-16T10:06:55;101083.47;;;19.01;59.56
36222;BME280;22266;52.340;4.962;2023-07-16T10:09:56;101083.69;;;18.99;59.39
36222;BME280;22266;52.340;4.962;2023-07-16T10:12:25;101080.34;;;19.09;59.34
36222;BME280;22266;52.340;4.962;2023-07-16T10:14:54;101094.03;;;18.97;59.07
36222;BME280;22266;52.340;4.962;2023-07-16T10:17:25;101099.41;;;18.92;59.65
36222;BME280;22266;52.340;4.962;2023-07-16T10:19:58;101088.72;;;18.91;60.43
36222;BME280;22266;52.340;4.962;2023-07-16T10:22:34;101100.09;;;18.88;60.53
36222;BME280;22266;52.340;4.962;2023-07-16T10:27:45;101102.09;;;19.04;60.58
36222;BME280;22266;52.340;4.962;2023-07-16T10:30:12;101111.28;;;19.15;60.46
36222;BME280;22266;52.340;4.962;2023-07-16T10:32:39;101119.13;;;19.28;60.24
36222;BME280;22266;52.340;4.962;2023-07-16T10:35:07;101099.16;;;19.39;59.98
36222;BME280;22266;52.340;4.962;2023-07-16T10:37:38;101101.81;;;19.51;59.66
36222;BME280;22266;52.340;4.962;2023-07-16T10:40:05;101111.25;;;19.60;59.12
36222;BME280;22266;52.340;4.962;2023-07-16T10:42:32;101114.22;;;19.59;58.77
36222;BME280;22266;52.340;4.962;2023-07-16T10:45:01;101103.78;;;19.56;58.83
36222;BME280;22266;52.340;4.962;2023-07-16T10:47:32;101109.31;;;19.44;58.30
36222;BME280;22266;52.340;4.962;2023-07-16T10:50:02;101117.28;;;19.45;58.78
36222;BME280;22266;52.340;4.962;2023-07-16T10:52:29;101121.31;;;19.43;58.69
36222;BME280;22266;52.340;4.962;2023-07-16T10:54:55;101126.78;;;19.43;58.43
36222;BME280;22266;52.340;4.962;2023-07-16T10:57:24;101125.22;;;19.47;58.25
36222;BME280;22266;52.340;4.962;2023-07-16T10:59:52;101116.22;;;19.46;58.01
36222;BME280;22266;52.340;4.962;2023-07-16T11:02:20;101104.53;;;19.51;57.95
36222;BME280;22266;52.340;4.962;2023-07-16T11:04:47;101128.25;;;19.62;57.65
36222;BME280;22266;52.340;4.962;2023-07-16T11:07:15;101129.06;;;19.63;56.31
36222;BME280;22266;52.340;4.962;2023-07-16T11:09:46;101130.66;;;19.75;54.37
36222;BME280;22266;52.340;4.962;2023-07-16T11:12:15;101132.16;;;19.83;53.66
36222;BME280;22266;52.340;4.962;2023-07-16T11:14:44;101138.19;;;19.85;53.21
36222;BME280;22266;52.340;4.962;2023-07-16T11:17:11;101118.47;;;19.83;53.15
36222;BME280;22266;52.340;4.962;2023-07-16T11:19:39;101144.50;;;19.86;53.14
36222;BME280;22266;52.340;4.962;2023-07-16T11:22:07;101149.13;;;19.85;52.59
36222;BME280;22266;52.340;4.962;2023-07-16T11:24:52;101150.50;;;19.88;52.67
36222;BME280;22266;52.340;4.962;2023-07-16T11:27:27;101144.28;;;20.09;53.19
36222;BME280;22266;52.340;4.962;2023-07-16T11:29:55;101142.06;;;20.06;51.97
36222;BME280;22266;52.340;4.962;2023-07-16T11:32:37;101147.53;;;20.06;51.21
36222;BME280;22266;52.340;4.962;2023-07-16T11:35:05;101146.94;;;20.04;51.08
36222;BME280;22266;52.340;4.962;2023-07-16T11:37:33;101156.91;;;20.10;51.09
36222;BME280;22266;52.340;4.962;2023-07-16T11:40:05;101166.41;;;20.08;50.83
36222;BME280;22266;52.340;4.962;2023-07-16T11:42:39;101174.34;;;20.09;51.08
36222;BME280;22266;52.340;4.962;2023-07-16T11:45:18;101165.31;;;20.09;51.26
36222;BME280;22266;52.340;4.962;2023-07-16T11:47:46;101172.97;;;20.07;51.11
36222;BME280;22266;52.340;4.962;2023-07-16T11:50:12;101171.31;;;20.06;51.30
36222;BME280;22266;52.340;4.962;2023-07-16T11:52:40;101176.25;;;20.09;51.38
36222;BME280;22266;52.340;4.962;2023-07-16T11:55:07;101161.50;;;20.27;51.74
36222;BME280;22266;52.340;4.962;2023-07-16T11:57:34;101174.81;;;20.40;51.53
36222;BME280;22266;52.340;4.962;2023-07-16T12:00:02;101178.56;;;20.51;50.80
36222;BME280;22266;52.340;4.962;2023-07-16T12:02:30;101170.25;;;20.45;49.36
36222;BME280;22266;52.340;4.962;2023-07-16T12:04:56;101173.56;;;20.47;49.07
36222;BME280;22266;52.340;4.962;2023-07-16T12:07:37;101166.34;;;20.41;48.31
36222;BME280;22266;52.340;4.962;2023-07-16T12:10:06;101178.38;;;20.40;47.75
36222;BME280;22266;52.340;4.962;2023-07-16T12:12:33;101186.78;;;20.34;46.96
36222;BME280;22266;52.340;4.962;2023-07-16T12:15:05;101174.69;;;20.30;46.89
36222;BME280;22266;52.340;4.962;2023-07-16T12:17:31;101181.22;;;20.29;46.25
36222;BME280;22266;52.340;4.962;2023-07-16T12:19:58;101188.56;;;20.45;46.36
36222;BME280;22266;52.340;4.962;2023-07-16T12:22:25;101186.41;;;20.47;46.30
36222;BME280;22266;52.340;4.962;2023-07-16T12:24:52;101191.41;;;20.50;45.60
36222;BME280;22266;52.340;4.962;2023-07-16T12:27:18;101177.00;;;20.55;45.30
36222;BME280;22266;52.340;4.962;2023-07-16T12:29:45;101190.03;;;20.69;46.79
36222;BME280;22266;52.340;4.962;2023-07-16T12:32:13;101200.19;;;20.91;46.81
36222;BME280;22266;52.340;4.962;2023-07-16T12:34:39;101204.81;;;20.90;46.11
36222;BME280;22266;52.340;4.962;2023-07-16T12:37:06;101205.31;;;20.87;45.62
36222;BME280;22266;52.340;4.962;2023-07-16T12:39:33;101211.56;;;20.83;45.07
36222;BME280;22266;52.340;4.962;2023-07-16T12:41:59;101203.09;;;20.84;45.87
36222;BME280;22266;52.340;4.962;2023-07-16T12:44:26;101201.75;;;20.87;45.80
36222;BME280;22266;52.340;4.962;2023-07-16T12:46:52;101200.41;;;20.89;46.48
36222;BME280;22266;52.340;4.962;2023-07-16T12:49:19;101204.22;;;20.88;46.46
36222;BME280;22266;52.340;4.962;2023-07-16T12:51:46;101222.06;;;20.91;47.10
36222;BME280;22266;52.340;4.962;2023-07-16T12:54:12;101218.34;;;21.02;47.27
36222;BME280;22266;52.340;4.962;2023-07-16T12:56:39;101211.00;;;21.03;47.28
36222;BME280;22266;52.340;4.962;2023-07-16T12:59:06;101217.66;;;21.12;47.46
36222;BME280;22266;52.340;4.962;2023-07-16T13:01:33;101219.06;;;21.14;47.18